Rushville, IL (62681)

6:06 AM CST on December 11, 2016 (GMT -0600)
Camden | | Change Station

Elev 592 ft 40.15 °N, 90.77 °W | Updated 2 seconds ago

Overcast
Overcast
35.1 °F
Feels Like 35 °F
N
2.9
Wind Variable Wind from SSE
Gusts 4.9 mph

Today
High -- | Low -- °F
--% Chance of Precip.
Yesterday
High -- | Low -- °F
Precip. -- in
Pressure 29.98 in
Visibility 10.0 miles
Clouds Mostly Cloudy 2300 ft
Overcast 3200 ft
Windchill 35 °F
Dew Point 18 °F
Humidity 49%
Rainfall 0.00 in
Snow Depth Not available.
7:14 AM 4:36 PM
Waxing Gibbous, 91% visible
METAR KMQB 111155Z AUTO 17012G16KT 10SM BKN023 OVC032 01/M05 A2998 RMK AO2 T00101054 10010 21009
Pressure 29.98 in
Visibility 10.0 miles
Clouds Mostly Cloudy 2300 ft
Overcast 3200 ft
Windchill 35 °F
Dew Point 18 °F
Humidity 49%
Rainfall 0.00 in
Snow Depth Not available.
7:14 AM 4:36 PM
Waxing Gibbous, 91% visible
METAR KMQB 111155Z AUTO 17012G16KT 10SM BKN023 OVC032 01/M05 A2998 RMK AO2 T00101054 10010 21009

10-Day Weather Forecast

Almanac

Astronomy

Dec. 11, 2016 Rise Set
Actual Time
Civil Twilight
Nautical Twilight
Astronomical Twilight
Moon
Length of Visible Light
Length of Day
Tomorrow will be .
, % of the Moon is Illuminated

Today's Extremes

State Highs State Lows

Community

WunderPhotos

Upload Photos

1,956,710 photos uploaded!

WunderBlog® & News

Nearby

Air Quality

  Air Quality AQ Index Pollutant
Not available.

Snow Depth

Station Depth Elevation

Earthquake Activity

City Distance Mag. Time & Date
Minimum magnitude displayed is 2.5.

Coastal Water Temperatures

Place Temperature

Stations

Nearby Weather Stations

Station Location Temp. Windchill Dew Point Humidity Wind Precip. Elev Updated Type
                   

Watches & Warnings

There are currently no watches in effect.